Time;durP1;ratioP1;P1;durP2;ratioP2;P2;SDS_P1;SDS_P2;PMS_P1;PMS_P2;Temp;Humidity;BMP_temperature;BMP_pressure;BME280_temperature;BME280_humidity;BME280_pressure;Samples;Min_cycle;Max_cycle;Signal;HPM_P1;HPM_P2
2021/05/10 00:01:04;;;;;;;;;;;;;;;8.61;52.83;97100.55;1791808;78;20277;-58
2021/05/10 00:03:31;;;;;;;;;;;;;;;8.59;53.05;97097.22;1796336;78;21212;-58
2021/05/10 00:05:59;;;;;;;;;;;;;;;8.59;53.15;97101.09;1796998;78;20245;-57
2021/05/10 00:08:27;;;;;;;;;;;;;;;8.59;53.20;97103.69;1796508;78;20234;-57
2021/05/10 00:10:54;;;;;;;;;;;;;;;8.58;53.30;97105.88;1783444;78;20267;-59
2021/05/10 00:13:25;;;;;;;;;;;;;;;8.56;53.25;97101.26;1795026;78;20226;-60
2021/05/10 00:15:54;;;;;;;;;;;;;;;8.51;53.22;97101.97;1789624;78;20289;-58
2021/05/10 00:18:23;;;;;;;;;;;;;;;8.45;53.34;97100.56;1783854;79;20277;-58
2021/05/10 00:20:52;;;;;;;;;;;;;;;8.41;53.53;97107.23;1788819;79;20240;-58
2021/05/10 00:23:20;;;;;;;;;;;;;;;8.36;53.74;97102.31;1796374;78;20217;-57
2021/05/10 00:25:48;;;;;;;;;;;;;;;8.32;53.87;97100.78;1793671;78;20233;-58
2021/05/10 00:28:17;;;;;;;;;;;;;;;8.28;54.05;97099.30;1786166;79;20713;-59
2021/05/10 00:30:45;;;;;;;;;;;;;;;8.23;54.19;97102.12;1792770;78;20576;-57
2021/05/10 00:33:12;;;;;;;;;;;;;;;8.19;54.43;97100.62;1788062;79;20228;-57
2021/05/10 00:35:39;;;;;;;;;;;;;;;8.14;54.40;97097.45;1796074;78;20222;-58
2021/05/10 00:38:07;;;;;;;;;;;;;;;8.10;54.59;97104.51;1792853;78;20214;-57
2021/05/10 00:40:34;;;;;;;;;;;;;;;8.07;54.58;97096.09;1793881;78;21267;-57
2021/05/10 00:43:02;;;;;;;;;;;;;;;8.03;54.57;97096.70;1799417;78;20222;-58
2021/05/10 00:45:29;;;;;;;;;;;;;;;8.03;54.48;97097.17;1789059;78;20226;-58
2021/05/10 00:47:57;;;;;;;;;;;;;;;8.04;54.45;97099.69;1788541;79;20222;-58
2021/05/10 00:50:27;;;;;;;;;;;;;;;8.08;54.38;97100.35;1774951;79;20280;-57
2021/05/10 00:52:54;;;;;;;;;;;;;;;8.10;54.28;97108.85;1785524;79;22271;-58
2021/05/10 00:55:21;;;;;;;;;;;;;;;8.11;54.39;97099.73;1770441;79;20216;-59
2021/05/10 00:57:52;;;;;;;;;;;;;;;8.14;54.29;97097.45;1799259;78;20241;-59
2021/05/10 01:00:21;;;;;;;;;;;;;;;8.14;54.28;97096.16;1794385;78;20297;-58
2021/05/10 01:02:49;;;;;;;;;;;;;;;8.15;54.35;97091.34;1774839;79;20224;-58
2021/05/10 01:05:16;;;;;;;;;;;;;;;8.16;54.39;97094.32;1792329;79;21205;-59
2021/05/10 01:07:44;;;;;;;;;;;;;;;8.15;54.37;97093.94;1787320;78;20796;-59
2021/05/10 01:10:13;;;;;;;;;;;;;;;8.15;54.30;97089.23;1781601;78;20230;-59
2021/05/10 01:12:40;;;;;;;;;;;;;;;8.16;54.12;97094.76;1794224;79;20210;-59
2021/05/10 01:15:10;;;;;;;;;;;;;;;8.17;53.95;97081.75;1790566;79;20218;-58
2021/05/10 01:17:38;;;;;;;;;;;;;;;8.23;53.71;97081.91;1790401;79;21204;-58
2021/05/10 01:20:08;;;;;;;;;;;;;;;8.28;53.47;97082.48;1782388;79;20230;-58
2021/05/10 01:22:43;;;;;;;;;;;;;;;8.32;53.17;97083.16;1773815;79;20268;-59
2021/05/10 01:25:14;;;;;;;;;;;;;;;8.37;52.95;97085.89;1795812;78;20715;-59
2021/05/10 01:27:42;;;;;;;;;;;;;;;8.42;52.72;97085.17;1797574;78;20504;-59
2021/05/10 01:30:30;;;;;;;;;;;;;;;8.46;52.53;97079.41;1789652;78;21149;-58
2021/05/10 01:32:58;;;;;;;;;;;;;;;8.50;52.49;97082.19;1785693;79;20222;-59
2021/05/10 01:35:28;;;;;;;;;;;;;;;8.48;52.47;97078.39;1780375;79;20516;-59
2021/05/10 01:37:56;;;;;;;;;;;;;;;8.48;52.69;97079.69;1776636;79;20857;-58
2021/05/10 01:40:24;;;;;;;;;;;;;;;8.47;52.85;97080.62;1789088;79;20520;-59
2021/05/10 01:42:52;;;;;;;;;;;;;;;8.46;52.99;97082.81;1770313;79;21280;-58
2021/05/10 01:45:19;;;;;;;;;;;;;;;8.45;53.15;97079.88;1772258;79;20215;-58
2021/05/10 01:47:46;;;;;;;;;;;;;;;8.43;53.15;97075.22;1761334;81;20246;-58
2021/05/10 01:50:17;;;;;;;;;;;;;;;8.39;53.41;97077.58;1754115;80;20699;-58
2021/05/10 01:52:46;;;;;;;;;;;;;;;8.37;53.43;97070.81;1752462;80;20216;-57
2021/05/10 01:55:15;;;;;;;;;;;;;;;8.32;53.61;97076.69;1772027;80;20997;-58
2021/05/10 01:57:47;;;;;;;;;;;;;;;8.26;53.77;97072.70;1755171;80;20697;-57
2021/05/10 02:00:17;;;;;;;;;;;;;;;8.19;53.97;97064.88;1756282;80;20589;-58
2021/05/10 02:02:45;;;;;;;;;;;;;;;8.13;54.19;97067.81;1760370;80;20316;-56
2021/05/10 02:05:15;;;;;;;;;;;;;;;8.06;54.40;97072.47;1770485;80;20216;-57
2021/05/10 02:07:46;;;;;;;;;;;;;;;8.02;54.57;97072.23;1772607;80;21227;-57
2021/05/10 02:10:25;;;;;;;;;;;;;;;7.99;54.68;97080.14;1765657;80;20210;-59
2021/05/10 02:12:57;;;;;;;;;;;;;;;7.95;54.79;97074.77;1768564;80;20219;-58
2021/05/10 02:15:26;;;;;;;;;;;;;;;7.91;54.89;97077.95;1769988;80;20218;-57
2021/05/10 02:17:53;;;;;;;;;;;;;;;7.87;55.00;97080.33;1761237;80;20216;-58
2021/05/10 02:20:22;;;;;;;;;;;;;;;7.79;55.33;97077.31;1771162;80;21399;-58
2021/05/10 02:22:56;;;;;;;;;;;;;;;7.70;55.63;97078.16;1764690;80;20211;-58
2021/05/10 02:25:25;;;;;;;;;;;;;;;7.62;55.93;97075.60;1770013;80;20534;-59
2021/05/10 02:27:53;;;;;;;;;;;;;;;7.54;56.07;97090.18;1773446;80;20242;-58
2021/05/10 02:30:22;;;;;;;;;;;;;;;7.47;56.30;97084.49;1770923;80;20437;-57
2021/05/10 02:32:51;;;;;;;;;;;;;;;7.43;56.61;97084.72;1767847;80;21198;-59
2021/05/10 02:35:20;;;;;;;;;;;;;;;7.39;56.72;97084.04;1755790;80;20542;-59
2021/05/10 02:37:48;;;;;;;;;;;;;;;7.35;56.86;97082.08;1761843;80;20244;-59
2021/05/10 02:40:16;;;;;;;;;;;;;;;7.35;56.93;97085.09;1775541;80;20261;-59
2021/05/10 02:42:44;;;;;;;;;;;;;;;7.34;56.96;97080.86;1759726;80;20214;-58
2021/05/10 02:45:13;;;;;;;;;;;;;;;7.33;57.00;97089.50;1770194;80;22340;-57
2021/05/10 02:47:40;;;;;;;;;;;;;;;7.31;57.08;97090.04;1787540;79;20230;-58
2021/05/10 02:50:10;;;;;;;;;;;;;;;7.29;57.05;97086.70;1779797;79;20225;-57
2021/05/10 02:52:38;;;;;;;;;;;;;;;7.27;57.13;97093.23;1786857;79;21054;-58
2021/05/10 02:55:07;;;;;;;;;;;;;;;7.30;57.04;97090.94;1788069;79;20315;-57
2021/05/10 02:57:35;;;;;;;;;;;;;;;7.32;57.16;97102.05;1790542;79;22850;-57
2021/05/10 03:00:07;;;;;;;;;;;;;;;7.34;57.05;97094.59;1775935;79;20214;-58
2021/05/10 03:02:35;;;;;;;;;;;;;;;7.40;56.88;97096.05;1781676;79;20262;-58
2021/05/10 03:05:05;;;;;;;;;;;;;;;7.45;56.94;97097.09;1789225;79;20235;-55
2021/05/10 03:07:33;;;;;;;;;;;;;;;7.51;57.33;97098.91;1792552;80;20494;-59
2021/05/10 03:10:01;;;;;;;;;;;;;;;7.60;56.60;97097.63;1787928;79;21364;-58
2021/05/10 03:12:29;;;;;;;;;;;;;;;7.67;56.46;97093.81;1763964;80;20238;-59
2021/05/10 03:14:57;;;;;;;;;;;;;;;7.72;56.27;97098.75;1780606;79;20289;-59
2021/05/10 03:17:25;;;;;;;;;;;;;;;7.74;56.23;97095.16;1776499;79;20272;-59
2021/05/10 03:19:52;;;;;;;;;;;;;;;7.76;56.12;97101.54;1793822;79;20243;-59
2021/05/10 03:22:20;;;;;;;;;;;;;;;7.77;56.18;97105.80;1785947;79;22122;-59
2021/05/10 03:24:47;;;;;;;;;;;;;;;7.80;56.11;97107.41;1779555;79;20224;-58
2021/05/10 03:27:15;;;;;;;;;;;;;;;7.86;56.09;97107.07;1792034;79;20251;-57
2021/05/10 03:29:42;;;;;;;;;;;;;;;7.92;55.95;97112.76;1794208;78;20246;-57
2021/05/10 03:32:10;;;;;;;;;;;;;;;7.99;55.67;97111.16;1790336;79;20234;-57
2021/05/10 03:34:37;;;;;;;;;;;;;;;8.00;55.61;97107.20;1791453;79;22290;-57
2021/05/10 03:37:05;;;;;;;;;;;;;;;8.06;55.68;97104.77;1776879;79;20271;-57
2021/05/10 03:39:33;;;;;;;;;;;;;;;8.18;55.18;97108.46;1795589;78;20221;-56
2021/05/10 03:42:00;;;;;;;;;;;;;;;8.34;54.94;97109.31;1797651;78;20304;-56
2021/05/10 03:44:28;;;;;;;;;;;;;;;8.60;54.44;97109.25;1783826;79;20215;-57
2021/05/10 03:46:56;;;;;;;;;;;;;;;8.95;53.67;97109.05;1790137;79;21212;-57
2021/05/10 03:49:24;;;;;;;;;;;;;;;9.42;52.44;97111.15;1788746;78;20490;-58
2021/05/10 03:51:52;;;;;;;;;;;;;;;9.90;51.48;97104.04;1766614;79;20267;-57
2021/05/10 03:54:19;;;;;;;;;;;;;;;10.42;50.27;97107.02;1789256;79;20655;-57
2021/05/10 03:56:48;;;;;;;;;;;;;;;10.90;48.93;97107.45;1781948;78;20236;-57
2021/05/10 03:59:15;;;;;;;;;;;;;;;11.44;47.59;97108.36;1796879;78;21922;-56
2021/05/10 04:01:43;;;;;;;;;;;;;;;11.94;46.28;97115.87;1786040;78;20223;-56
2021/05/10 04:04:25;;;;;;;;;;;;;;;12.37;44.42;97111.65;1781551;78;20265;-58
2021/05/10 04:07:09;;;;;;;;;;;;;;;12.58;44.13;97110.63;1797197;78;20225;-58
2021/05/10 04:09:40;;;;;;;;;;;;;;;12.70;43.55;97112.34;1782272;78;20232;-57
2021/05/10 04:14:44;;;;;;;;;;;;;;;13.16;42.67;97109.52;1761165;79;20235;-56
2021/05/10 04:17:11;;;;;;;;;;;;;;;13.30;41.93;97108.98;1794979;79;20234;-57
2021/05/10 04:19:39;;;;;;;;;;;;;;;13.39;41.70;97118.30;1800101;78;20214;-57
2021/05/10 04:22:07;;;;;;;;;;;;;;;13.61;41.82;97118.83;1789937;79;20488;-57
2021/05/10 04:24:35;;;;;;;;;;;;;;;14.09;40.56;97120.45;1763931;79;21212;-58
2021/05/10 04:27:05;;;;;;;;;;;;;;;14.52;39.77;97115.86;1794868;78;20214;-57
2021/05/10 04:29:32;;;;;;;;;;;;;;;14.84;38.85;97115.61;1784085;79;20229;-57
2021/05/10 04:31:59;;;;;;;;;;;;;;;15.14;38.10;97116.22;1796990;79;20325;-55
2021/05/10 04:34:27;;;;;;;;;;;;;;;15.49;38.19;97109.08;1793325;79;20252;-58
2021/05/10 04:36:55;;;;;;;;;;;;;;;15.98;37.86;97108.95;1796361;78;21212;-58
2021/05/10 04:39:22;;;;;;;;;;;;;;;16.71;37.06;97107.52;1737972;81;20651;-58
2021/05/10 04:41:50;;;;;;;;;;;;;;;17.39;35.21;97105.52;1798864;78;20217;-56
2021/05/10 04:44:17;;;;;;;;;;;;;;;17.82;34.03;97106.36;1794235;78;20234;-58
2021/05/10 04:46:45;;;;;;;;;;;;;;;18.02;32.57;97103.72;1782879;79;20265;-58
2021/05/10 04:49:12;;;;;;;;;;;;;;;18.08;33.92;97099.72;1790518;78;22747;-57
2021/05/10 04:51:40;;;;;;;;;;;;;;;18.65;33.65;97102.23;1792298;78;20633;-57
2021/05/10 04:54:07;;;;;;;;;;;;;;;19.18;32.44;97098.90;1782376;78;20297;-58
2021/05/10 04:56:34;;;;;;;;;;;;;;;19.60;32.25;97100.08;1800235;78;20246;-58
2021/05/10 04:59:02;;;;;;;;;;;;;;;20.22;31.70;97101.34;1797369;79;20221;-58
2021/05/10 05:01:29;;;;;;;;;;;;;;;20.91;30.96;97101.33;1789147;78;21159;-57
2021/05/10 05:03:58;;;;;;;;;;;;;;;21.58;30.32;97100.44;1797058;79;20222;-57
2021/05/10 05:06:26;;;;;;;;;;;;;;;22.19;29.20;97103.02;1791434;78;20237;-57
2021/05/10 05:08:53;;;;;;;;;;;;;;;22.71;28.10;97109.64;1792977;78;20230;-56
2021/05/10 05:11:20;;;;;;;;;;;;;;;23.18;27.50;97101.84;1789101;79;20495;-57
2021/05/10 05:13:47;;;;;;;;;;;;;;;23.59;26.72;97096.25;1790673;78;21413;-58
2021/05/10 05:16:15;;;;;;;;;;;;;;;23.95;26.04;97097.77;1789901;78;20512;-59
2021/05/10 05:18:42;;;;;;;;;;;;;;;24.33;25.82;97099.03;1792583;79;20214;-57
2021/05/10 05:21:09;;;;;;;;;;;;;;;24.73;25.42;97105.39;1796306;78;20220;-57
2021/05/10 05:23:37;;;;;;;;;;;;;;;25.15;24.92;97098.02;1793753;78;20296;-57
2021/05/10 05:26:04;;;;;;;;;;;;;;;25.58;24.53;97097.23;1777781;79;22184;-58
2021/05/10 05:28:32;;;;;;;;;;;;;;;25.94;23.86;97096.78;1793980;78;20222;-58
2021/05/10 05:31:01;;;;;;;;;;;;;;;26.23;23.13;97097.12;1763129;79;20240;-57
2021/05/10 05:33:29;;;;;;;;;;;;;;;26.34;22.96;97095.77;1798337;78;20248;-57
2021/05/10 05:35:57;;;;;;;;;;;;;;;26.50;22.88;97093.27;1797773;79;20210;-58
2021/05/10 05:38:24;;;;;;;;;;;;;;;26.61;22.56;97098.88;1789367;78;21207;-57
2021/05/10 05:40:53;;;;;;;;;;;;;;;26.64;22.48;97091.02;1789094;78;20210;-57
2021/05/10 05:43:22;;;;;;;;;;;;;;;26.74;21.95;97091.47;1777094;79;20219;-58
2021/05/10 05:45:49;;;;;;;;;;;;;;;26.57;22.30;97093.62;1797954;78;20218;-58
2021/05/10 05:48:18;;;;;;;;;;;;;;;26.61;21.53;97089.56;1792343;78;20213;-56
2021/05/10 05:50:46;;;;;;;;;;;;;;;26.34;21.76;97088.59;1791863;78;21196;-57
2021/05/10 05:53:14;;;;;;;;;;;;;;;26.01;21.80;97080.42;1793245;78;20221;-57
2021/05/10 05:55:42;;;;;;;;;;;;;;;25.71;21.56;97085.90;1790400;78;20243;-57
2021/05/10 05:58:10;;;;;;;;;;;;;;;25.21;21.96;97085.80;1782815;78;20232;-58
2021/05/10 06:00:37;;;;;;;;;;;;;;;25.11;22.13;97083.45;1789272;78;20301;-57
2021/05/10 06:03:05;;;;;;;;;;;;;;;25.55;22.01;97088.83;1795542;79;21212;-57
2021/05/10 06:05:34;;;;;;;;;;;;;;;25.83;21.18;97090.98;1781431;79;21937;-57
2021/05/10 06:08:04;;;;;;;;;;;;;;;25.77;21.44;97086.44;1796983;78;20224;-57
2021/05/10 06:10:31;;;;;;;;;;;;;;;26.02;21.28;97087.36;1784317;79;20301;-58
2021/05/10 06:12:58;;;;;;;;;;;;;;;26.18;21.21;97082.26;1790181;79;20220;-58
2021/05/10 06:15:26;;;;;;;;;;;;;;;26.45;21.06;97084.05;1793795;78;21385;-57
2021/05/10 06:17:54;;;;;;;;;;;;;;;26.73;21.54;97084.52;1792632;79;20211;-58
2021/05/10 06:20:24;;;;;;;;;;;;;;;27.16;21.08;97076.24;1786217;78;20489;-58
2021/05/10 06:22:52;;;;;;;;;;;;;;;27.57;20.39;97080.31;1779644;78;20842;-57
2021/05/10 06:25:19;;;;;;;;;;;;;;;27.68;19.69;97069.88;1790664;78;20219;-57
2021/05/10 06:27:46;;;;;;;;;;;;;;;27.29;20.00;97075.48;1788061;78;21998;-57
2021/05/10 06:30:15;;;;;;;;;;;;;;;26.48;20.17;97072.20;1786064;79;20220;-58
2021/05/10 06:32:48;;;;;;;;;;;;;;;25.36;21.50;97067.19;1794714;79;20240;-59
2021/05/10 06:35:14;;;;;;;;;;;;;;;24.55;22.13;97073.91;1794648;79;20222;-59
2021/05/10 06:37:41;;;;;;;;;;;;;;;23.65;23.14;97073.84;1788303;78;20214;-59
2021/05/10 06:40:10;;;;;;;;;;;;;;;22.60;24.35;97075.16;1793777;79;21377;-57
2021/05/10 06:42:38;;;;;;;;;;;;;;;21.85;25.96;97073.69;1794902;78;20836;-56
2021/05/10 06:45:08;;;;;;;;;;;;;;;21.23;26.85;97074.67;1779826;79;20291;-58
2021/05/10 06:47:39;;;;;;;;;;;;;;;20.66;28.04;97072.72;1795821;79;20776;-58
2021/05/10 06:50:08;;;;;;;;;;;;;;;20.39;27.67;97081.16;1794986;78;20225;-59
2021/05/10 06:52:38;;;;;;;;;;;;;;;20.27;28.96;97075.34;1789144;78;21381;-59
2021/05/10 06:55:06;;;;;;;;;;;;;;;20.32;29.19;97076.20;1791604;79;20261;-59
2021/05/10 06:57:35;;;;;;;;;;;;;;;20.11;29.08;97080.03;1766960;79;20273;-59
2021/05/10 07:00:03;;;;;;;;;;;;;;;19.77;29.70;97070.77;1782716;78;20215;-60
2021/05/10 07:02:31;;;;;;;;;;;;;;;19.52;30.40;97073.69;1792230;79;20214;-56
2021/05/10 07:05:00;;;;;;;;;;;;;;;19.29;31.06;97066.27;1788843;79;21363;-57
2021/05/10 07:07:30;;;;;;;;;;;;;;;19.15;30.81;97074.20;1792749;78;20230;-56
2021/05/10 07:09:58;;;;;;;;;;;;;;;19.01;30.92;97078.66;1784581;78;20216;-59
2021/05/10 07:12:28;;;;;;;;;;;;;;;18.99;30.63;97066.16;1773714;79;20233;-59
2021/05/10 07:14:58;;;;;;;;;;;;;;;19.07;30.91;97066.23;1794746;79;20504;-60
2021/05/10 07:17:25;;;;;;;;;;;;;;;19.12;30.41;97067.43;1786242;79;21210;-59
2021/05/10 07:19:53;;;;;;;;;;;;;;;19.05;30.52;97066.89;1792951;78;20218;-58
2021/05/10 07:22:21;;;;;;;;;;;;;;;19.02;31.32;97074.57;1787358;79;20242;-59
2021/05/10 07:24:48;;;;;;;;;;;;;;;18.98;30.55;97059.23;1781842;79;20232;-59
2021/05/10 07:27:16;;;;;;;;;;;;;;;18.97;31.69;97067.63;1800116;78;20209;-58
2021/05/10 07:29:44;;;;;;;;;;;;;;;19.16;30.50;97066.66;1782972;78;21208;-59
2021/05/10 07:32:12;;;;;;;;;;;;;;;19.24;31.56;97061.95;1787577;78;20231;-59
2021/05/10 07:34:39;;;;;;;;;;;;;;;19.36;31.66;97061.22;1791520;78;20278;-59
2021/05/10 07:37:07;;;;;;;;;;;;;;;19.45;30.93;97060.31;1795881;79;20234;-59
2021/05/10 07:39:34;;;;;;;;;;;;;;;19.61;29.75;97064.89;1786942;78;20502;-59
2021/05/10 07:42:02;;;;;;;;;;;;;;;19.68;29.61;97054.88;1795987;78;22337;-59
2021/05/10 07:44:30;;;;;;;;;;;;;;;19.78;29.21;97050.05;1786748;79;20300;-59
2021/05/10 07:46:58;;;;;;;;;;;;;;;19.74;30.75;97052.64;1773405;79;20217;-60
2021/05/10 07:49:26;;;;;;;;;;;;;;;19.75;31.52;97055.12;1739996;80;20408;-60
2021/05/10 07:51:54;;;;;;;;;;;;;;;19.87;32.31;97053.09;1763237;80;20213;-60
2021/05/10 07:54:22;;;;;;;;;;;;;;;20.04;31.64;97054.81;1758359;81;21217;-59
2021/05/10 07:56:56;;;;;;;;;;;;;;;20.29;30.86;97060.20;1770283;80;20207;-62
2021/05/10 07:59:26;;;;;;;;;;;;;;;20.39;30.39;97056.97;1767519;81;20496;-58
2021/05/10 08:01:57;;;;;;;;;;;;;;;20.31;30.75;97060.89;1765483;81;20219;-57
2021/05/10 08:04:27;;;;;;;;;;;;;;;20.21;30.96;97049.63;1765207;81;20317;-60
2021/05/10 08:06:54;;;;;;;;;;;;;;;20.16;30.71;97055.86;1763517;81;22868;-58
2021/05/10 08:09:22;;;;;;;;;;;;;;;20.20;31.58;97054.08;1761908;80;20237;-60
2021/05/10 08:11:51;;;;;;;;;;;;;;;20.36;30.02;97052.02;1763149;81;20510;-59
2021/05/10 08:14:20;;;;;;;;;;;;;;;20.27;30.59;97055.59;1757976;81;20268;-59
2021/05/10 08:16:49;;;;;;;;;;;;;;;20.18;30.48;97044.20;1759351;81;20218;-60
2021/05/10 08:19:16;;;;;;;;;;;;;;;20.22;31.55;97044.70;1763690;80;21221;-59
2021/05/10 08:21:44;;;;;;;;;;;;;;;20.45;31.00;97034.92;1772325;80;20219;-58
2021/05/10 08:24:12;;;;;;;;;;;;;;;20.76;30.48;97033.88;1763573;80;20219;-58
2021/05/10 08:26:40;;;;;;;;;;;;;;;21.09;29.06;97029.47;1758854;80;20715;-59
2021/05/10 08:29:07;;;;;;;;;;;;;;;21.13;29.20;97037.41;1765800;80;20215;-58
2021/05/10 08:31:35;;;;;;;;;;;;;;;20.94;29.60;97027.97;1763645;80;21393;-59
2021/05/10 08:34:03;;;;;;;;;;;;;;;20.88;29.35;97030.44;1767778;80;20207;-59
2021/05/10 08:36:31;;;;;;;;;;;;;;;20.92;30.71;97026.47;1762770;80;20226;-58
2021/05/10 08:38:58;;;;;;;;;;;;;;;21.26;29.34;97032.12;1760929;80;20497;-58
2021/05/10 08:41:26;;;;;;;;;;;;;;;21.47;29.20;97035.11;1772318;80;20244;-59
2021/05/10 08:43:55;;;;;;;;;;;;;;;21.46;29.26;97024.69;1759732;80;21207;-60
2021/05/10 08:46:31;;;;;;;;;;;;;;;21.55;29.74;97018.95;1739587;79;20262;-58
2021/05/10 08:48:59;;;;;;;;;;;;;;;21.85;29.14;97026.64;1793304;78;20228;-59
2021/05/10 08:51:29;;;;;;;;;;;;;;;21.95;28.84;97021.17;1794127;78;20230;-59
2021/05/10 08:53:57;;;;;;;;;;;;;;;21.79;29.59;97015.42;1784842;78;20513;-58
2021/05/10 08:56:24;;;;;;;;;;;;;;;21.56;29.16;97003.42;1791985;78;21174;-58
2021/05/10 08:58:52;;;;;;;;;;;;;;;21.65;29.66;97006.39;1793900;78;20219;-59
2021/05/10 09:01:20;;;;;;;;;;;;;;;21.93;29.15;97005.49;1792905;79;20269;-59
2021/05/10 09:03:50;;;;;;;;;;;;;;;22.05;30.90;97014.69;1786069;78;20252;-58
2021/05/10 09:06:21;;;;;;;;;;;;;;;22.27;29.04;96999.11;1798239;78;20222;-57
2021/05/10 09:08:49;;;;;;;;;;;;;;;22.21;28.56;96993.18;1775851;79;21465;-57
2021/05/10 09:11:18;;;;;;;;;;;;;;;22.00;29.96;97005.64;1789255;79;20236;-58
2021/05/10 09:13:48;;;;;;;;;;;;;;;21.97;29.71;97001.50;1785821;79;20560;-58
2021/05/10 09:16:15;;;;;;;;;;;;;;;22.13;30.34;97003.27;1799175;78;20673;-58
2021/05/10 09:18:52;;;;;;;;;;;;;;;22.30;30.17;97002.73;1771695;79;20527;-59
2021/05/10 09:21:30;;;;;;;;;;;;;;;22.26;29.50;96999.27;1779307;78;21363;-59
2021/05/10 09:24:00;;;;;;;;;;;;;;;22.12;30.15;96983.63;1793819;79;20510;-56
2021/05/10 09:26:32;;;;;;;;;;;;;;;22.12;29.77;96988.44;1787522;78;20235;-58
2021/05/10 09:29:00;;;;;;;;;;;;;;;22.03;30.40;96990.27;1784828;78;20210;-59
2021/05/10 09:31:29;;;;;;;;;;;;;;;21.97;30.25;96986.16;1792462;78;20244;-60
2021/05/10 09:33:57;;;;;;;;;;;;;;;22.16;30.24;96985.76;1791636;79;21360;-59
2021/05/10 09:36:40;;;;;;;;;;;;;;;22.26;30.74;96980.27;1780096;79;20499;-58
2021/05/10 09:39:27;;;;;;;;;;;;;;;22.15;30.90;96982.78;1795346;78;20184;-59
2021/05/10 09:42:09;;;;;;;;;;;;;;;21.97;31.13;96975.59;1788832;78;20217;-57
2021/05/10 09:44:41;;;;;;;;;;;;;;;22.02;32.13;96974.58;1798607;78;20253;-59
2021/05/10 09:47:09;;;;;;;;;;;;;;;21.93;30.87;96982.23;1790341;78;22294;-61
2021/05/10 09:49:49;;;;;;;;;;;;;;;21.76;32.22;96973.50;1785077;79;20240;-58
2021/05/10 09:52:21;;;;;;;;;;;;;;;21.64;32.59;96970.41;1798859;78;20214;-58
2021/05/10 09:54:59;;;;;;;;;;;;;;;21.63;31.69;96959.03;1790861;78;20269;-59
2021/05/10 09:57:30;;;;;;;;;;;;;;;21.69;32.07;96956.19;1777596;78;20557;-59
2021/05/10 10:00:20;;;;;;;;;;;;;;;21.82;31.86;96971.52;1792667;78;21214;-54
2021/05/10 10:02:48;;;;;;;;;;;;;;;21.88;31.51;96957.64;1792777;79;20211;-59
2021/05/10 10:05:17;;;;;;;;;;;;;;;21.91;32.15;96952.48;1789684;78;20216;-59
2021/05/10 10:07:46;;;;;;;;;;;;;;;22.01;32.38;96950.49;1692885;79;20235;-57
2021/05/10 10:10:16;;;;;;;;;;;;;;;22.00;31.28;96949.65;1657113;84;20223;-59
2021/05/10 10:12:44;;;;;;;;;;;;;;;21.83;30.93;96946.25;1694027;84;21398;-58
2021/05/10 10:15:13;;;;;;;;;;;;;;;21.67;31.72;96949.76;1694605;83;20302;-59
2021/05/10 10:17:43;;;;;;;;;;;;;;;21.62;31.90;96940.71;1691191;84;20490;-59
2021/05/10 10:20:13;;;;;;;;;;;;;;;21.68;31.84;96944.81;1645778;85;20256;-59
2021/05/10 10:22:41;;;;;;;;;;;;;;;21.79;32.61;96956.00;1684883;83;20497;-60
2021/05/10 10:25:10;;;;;;;;;;;;;;;21.73;32.13;96940.35;1676183;83;21442;-59
2021/05/10 10:27:40;;;;;;;;;;;;;;;21.57;31.73;96946.49;1676897;83;20223;-59
2021/05/10 10:30:09;;;;;;;;;;;;;;;21.54;32.73;96936.27;1669036;83;20244;-59
2021/05/10 10:32:39;;;;;;;;;;;;;;;21.69;31.34;96928.47;1693134;83;20320;-59
2021/05/10 10:35:12;;;;;;;;;;;;;;;21.68;31.66;96934.77;1669923;84;20229;-58
2021/05/10 10:37:41;;;;;;;;;;;;;;;21.76;32.18;96933.89;1670239;84;21229;-59
2021/05/10 10:40:24;;;;;;;;;;;;;;;21.90;31.11;96935.02;1659944;85;20299;-58
2021/05/10 10:42:51;;;;;;;;;;;;;;;21.90;31.88;96920.48;1685320;83;20266;-59
2021/05/10 10:45:22;;;;;;;;;;;;;;;21.86;31.71;96925.30;1666270;84;20261;-59
2021/05/10 10:47:59;;;;;;;;;;;;;;;21.81;30.99;96918.35;1655633;85;20248;-59
2021/05/10 10:50:29;;;;;;;;;;;;;;;21.82;32.23;96923.97;1649405;83;21220;-59
2021/05/10 10:52:58;;;;;;;;;;;;;;;21.97;32.29;96913.51;1649505;85;20227;-58
2021/05/10 10:55:41;;;;;;;;;;;;;;;22.11;31.61;96921.22;1661321;85;20254;-58
2021/05/10 10:58:18;;;;;;;;;;;;;;;22.17;31.16;96922.67;1650191;85;20245;-59
2021/05/10 11:01:05;;;;;;;;;;;;;;;22.17;31.07;96917.86;1651250;85;20233;-62
2021/05/10 11:03:34;;;;;;;;;;;;;;;22.14;31.24;96910.28;1651998;85;21236;-58
2021/05/10 11:06:05;;;;;;;;;;;;;;;22.11;30.85;96908.82;1648912;85;20231;-61
2021/05/10 11:08:46;;;;;;;;;;;;;;;22.00;31.57;96922.41;1633098;86;20254;-58
2021/05/10 11:11:34;;;;;;;;;;;;;;;21.92;30.84;96914.52;1632707;86;20238;-59
2021/05/10 11:14:03;;;;;;;;;;;;;;;21.91;31.41;96910.22;1632327;86;20231;-59
2021/05/10 11:16:46;;;;;;;;;;;;;;;21.90;31.51;96907.28;1637323;86;21230;-58
2021/05/10 11:19:38;;;;;;;;;;;;;;;21.93;31.15;96899.02;1866726;76;20232;-59
2021/05/10 11:22:30;;;;;;;;;;;;;;;21.88;31.66;96903.48;1838491;75;20511;-59
2021/05/10 11:25:19;;;;;;;;;;;;;;;21.83;31.68;96900.54;1853491;75;21359;-58
2021/05/10 11:27:46;;;;;;;;;;;;;;;21.85;31.09;96908.59;1837865;75;21906;-59
2021/05/10 11:30:14;;;;;;;;;;;;;;;21.83;31.66;96901.86;1800501;77;20504;-58
2021/05/10 11:32:45;;;;;;;;;;;;;;;21.85;32.35;96898.03;1834947;77;20231;-58
2021/05/10 11:35:24;;;;;;;;;;;;;;;21.91;32.25;96889.09;1843728;75;20216;-58
2021/05/10 11:38:00;;;;;;;;;;;;;;;21.94;32.57;96882.15;1837015;77;22298;-59
2021/05/10 11:40:27;;;;;;;;;;;;;;;21.92;32.03;96886.28;1843294;75;20590;-58
2021/05/10 11:42:54;;;;;;;;;;;;;;;21.87;32.92;96880.70;1840070;77;20627;-59
2021/05/10 11:45:21;;;;;;;;;;;;;;;21.97;33.13;96883.94;1825213;78;20219;-59
2021/05/10 11:47:50;;;;;;;;;;;;;;;22.15;32.44;96879.72;1825102;78;20228;-58
2021/05/10 11:50:18;;;;;;;;;;;;;;;22.21;31.54;96871.10;1825671;77;21198;-58
2021/05/10 11:52:45;;;;;;;;;;;;;;;22.14;31.54;96882.05;1823764;77;20228;-60
2021/05/10 11:55:14;;;;;;;;;;;;;;;22.11;31.56;96869.19;1820568;77;20218;-59
2021/05/10 11:57:43;;;;;;;;;;;;;;;22.13;32.93;96861.90;1816335;77;20220;-60
2021/05/10 12:00:15;;;;;;;;;;;;;;;22.29;31.45;96874.73;1820518;77;20244;-58
2021/05/10 12:02:43;;;;;;;;;;;;;;;22.29;32.19;96858.88;1822720;78;21316;-58
2021/05/10 12:05:11;;;;;;;;;;;;;;;22.32;31.62;96864.63;1826370;77;20248;-59
2021/05/10 12:07:39;;;;;;;;;;;;;;;22.23;31.31;96868.28;1825776;77;20224;-59
2021/05/10 12:10:11;;;;;;;;;;;;;;;22.12;31.58;96859.43;1821590;77;20282;-59
2021/05/10 12:12:44;;;;;;;;;;;;;;;22.06;31.84;96864.92;1821202;77;20220;-58
2021/05/10 12:15:18;;;;;;;;;;;;;;;22.07;31.87;96854.66;1825562;77;21369;-59
2021/05/10 12:17:51;;;;;;;;;;;;;;;22.09;32.22;96850.05;1818548;78;20240;-58
2021/05/10 12:20:21;;;;;;;;;;;;;;;22.09;32.56;96843.92;1822034;76;20282;-59
2021/05/10 12:22:53;;;;;;;;;;;;;;;22.08;31.85;96841.78;1822490;77;20219;-60
2021/05/10 12:25:28;;;;;;;;;;;;;;;22.09;32.16;96835.52;1825944;78;20216;-58
2021/05/10 12:28:14;;;;;;;;;;;;;;;22.22;31.38;96837.56;1825113;77;21206;-60
2021/05/10 12:30:54;;;;;;;;;;;;;;;22.32;32.42;96825.46;1810167;77;20500;-60
2021/05/10 12:33:29;;;;;;;;;;;;;;;22.45;31.54;96824.40;1798040;78;20268;-59
2021/05/10 12:35:59;;;;;;;;;;;;;;;22.52;31.45;96824.51;1793415;78;20214;-59
2021/05/10 12:38:38;;;;;;;;;;;;;;;22.44;30.88;96828.54;1795525;78;20221;-59
2021/05/10 12:41:20;;;;;;;;;;;;;;;22.43;31.84;96819.77;1798188;78;21383;-58
2021/05/10 12:43:48;;;;;;;;;;;;;;;22.47;31.34;96814.94;1788732;78;20217;-58
2021/05/10 12:46:17;;;;;;;;;;;;;;;22.46;31.54;96821.25;1796474;78;20225;-56
2021/05/10 12:48:47;;;;;;;;;;;;;;;22.46;30.98;96827.85;1789659;79;20216;-58
2021/05/10 12:51:26;;;;;;;;;;;;;;;22.43;32.05;96822.41;1782850;78;20221;-58
2021/05/10 12:54:13;;;;;;;;;;;;;;;22.44;31.83;96816.64;1796245;78;21209;-58
2021/05/10 12:56:43;;;;;;;;;;;;;;;22.33;30.82;96821.32;1800228;79;20555;-58
2021/05/10 12:59:11;;;;;;;;;;;;;;;22.21;32.03;96818.75;1791562;78;20241;-57
2021/05/10 13:01:38;;;;;;;;;;;;;;;22.22;31.55;96814.61;1786575;79;20264;-58
2021/05/10 13:04:10;;;;;;;;;;;;;;;22.14;31.99;96813.35;1801002;79;20248;-59
2021/05/10 13:06:38;;;;;;;;;;;;;;;22.12;30.87;96802.14;1800055;78;21438;-58